臺北飛航情報區 - 海峽席

METAR RCTP 181530Z 20011KT 9999 FEW020 BKN200 29/27 Q1008 NOSIG RMK A2978=

站台狀態:Online
最後更新:2019-06-18 23:45:02